Time;durP1;ratioP1;P1;durP2;ratioP2;P2;SDS_P1;SDS_P2;PMS_P1;PMS_P2;Temp;Humidity;BMP_temperature;BMP_pressure;BME280_temperature;BME280_humidity;BME280_pressure;Samples;Min_cycle;Max_cycle;Signal;HPM_P1;HPM_P2
2024/01/20 00:01:43;;;;;;;;;;;17.30;51.70;;;;;;7322328;19;9233;-59
2024/01/20 00:04:12;;;;;;;;;;;17.30;51.80;;;;;;7323486;19;9167;-59
2024/01/20 00:06:41;;;;;;;;;;;17.20;51.90;;;;;;7323249;19;9313;-59
2024/01/20 00:09:11;;;;;;;;;;;17.30;52.00;;;;;;7322619;19;10336;-60
2024/01/20 00:11:43;;;;;;;;;;;17.20;52.00;;;;;;7322595;19;9228;-59
2024/01/20 00:14:12;;;;;;;;;;;17.20;52.00;;;;;;7322045;19;9242;-59
2024/01/20 00:16:41;;;;;;;;;;;17.20;52.10;;;;;;7322262;19;9177;-59
2024/01/20 00:19:10;;;;;;;;;;;17.10;52.00;;;;;;7322409;19;9245;-59
2024/01/20 00:21:39;;;;;;;;;;;17.10;52.10;;;;;;7322066;19;9457;-60
2024/01/20 00:24:08;;;;;;;;;;;17.10;52.00;;;;;;7321961;19;9240;-59
2024/01/20 00:26:37;;;;;;;;;;;17.10;52.20;;;;;;7322261;19;9201;-60
2024/01/20 00:29:09;;;;;;;;;;;17.10;52.10;;;;;;7321635;19;9210;-60
2024/01/20 00:31:39;;;;;;;;;;;17.00;52.10;;;;;;7322788;19;9207;-59
2024/01/20 00:34:08;;;;;;;;;;;17.00;52.00;;;;;;7321871;19;9537;-59
2024/01/20 00:36:36;;;;;;;;;;;17.00;52.20;;;;;;7322163;19;9585;-59
2024/01/20 00:39:06;;;;;;;;;;;17.00;52.30;;;;;;7320892;19;9299;-59
2024/01/20 00:41:34;;;;;;;;;;;16.90;52.20;;;;;;7321433;19;9126;-60
2024/01/20 00:44:03;;;;;;;;;;;16.90;52.10;;;;;;7322457;19;9244;-59
2024/01/20 00:46:37;;;;;;;;;;;16.90;52.20;;;;;;7327544;19;9189;-59
2024/01/20 00:49:06;;;;;;;;;;;16.90;52.10;;;;;;7328540;19;9389;-60
2024/01/20 00:51:35;;;;;;;;;;;17.00;52.20;;;;;;7327722;19;9229;-59
2024/01/20 00:54:05;;;;;;;;;;;16.90;52.20;;;;;;7328881;19;9208;-59
2024/01/20 00:56:34;;;;;;;;;;;16.90;52.00;;;;;;7327779;19;9256;-59
2024/01/20 00:59:03;;;;;;;;;;;17.00;52.00;;;;;;7328904;19;9214;-59
2024/01/20 01:01:32;;;;;;;;;;;17.00;52.00;;;;;;7327753;19;9512;-59
2024/01/20 01:04:03;;;;;;;;;;;17.00;52.60;;;;;;7327667;19;9414;-59
2024/01/20 01:06:33;;;;;;;;;;;17.10;51.80;;;;;;7327360;19;9263;-59
2024/01/20 01:09:02;;;;;;;;;;;17.20;51.80;;;;;;7327831;19;9276;-59
2024/01/20 01:11:31;;;;;;;;;;;17.20;52.00;;;;;;7327472;19;9742;-59
2024/01/20 01:14:00;;;;;;;;;;;17.30;52.70;;;;;;7326826;19;9525;-60
2024/01/20 01:16:30;;;;;;;;;;;17.30;52.20;;;;;;7328371;19;9229;-59
2024/01/20 01:18:59;;;;;;;;;;;17.40;52.90;;;;;;7327938;19;9212;-59
2024/01/20 01:21:31;;;;;;;;;;;17.50;52.00;;;;;;7328342;19;9246;-60
2024/01/20 01:24:00;;;;;;;;;;;17.50;51.90;;;;;;7326665;19;9333;-59
2024/01/20 01:26:28;;;;;;;;;;;17.60;51.80;;;;;;7328614;19;9197;-59
2024/01/20 01:28:57;;;;;;;;;;;17.60;51.80;;;;;;7327222;19;9496;-60
2024/01/20 01:31:26;;;;;;;;;;;17.70;51.70;;;;;;7327758;19;9227;-59
2024/01/20 01:33:55;;;;;;;;;;;17.70;51.70;;;;;;7327536;19;9289;-60
2024/01/20 01:36:24;;;;;;;;;;;17.80;51.70;;;;;;7328294;19;9188;-59
2024/01/20 01:38:56;;;;;;;;;;;17.80;51.70;;;;;;7326052;19;9285;-59
2024/01/20 01:41:25;;;;;;;;;;;17.90;51.70;;;;;;7328008;19;9399;-59
2024/01/20 01:43:54;;;;;;;;;;;17.90;51.60;;;;;;7328041;19;10579;-59
2024/01/20 01:46:23;;;;;;;;;;;17.90;51.40;;;;;;7327640;19;9324;-59
2024/01/20 01:48:53;;;;;;;;;;;17.80;51.00;;;;;;7325688;19;9248;-60
2024/01/20 01:51:23;;;;;;;;;;;17.90;51.00;;;;;;7327238;19;9327;-59
2024/01/20 01:53:56;;;;;;;;;;;17.90;51.20;;;;;;7326992;19;9651;-59
2024/01/20 01:56:25;;;;;;;;;;;17.90;50.80;;;;;;7326919;19;8995;-59
2024/01/20 01:58:54;;;;;;;;;;;17.90;50.80;;;;;;7326970;19;10332;-59
2024/01/20 02:01:23;;;;;;;;;;;17.80;50.70;;;;;;7325460;19;9259;-60
2024/01/20 02:03:53;;;;;;;;;;;17.80;50.80;;;;;;7325291;19;11021;-59
2024/01/20 02:06:22;;;;;;;;;;;17.70;50.80;;;;;;7326619;19;9174;-59
2024/01/20 02:08:52;;;;;;;;;;;17.70;50.90;;;;;;7326212;19;9272;-59
2024/01/20 02:11:25;;;;;;;;;;;17.70;51.00;;;;;;7326041;19;9137;-59
2024/01/20 02:13:55;;;;;;;;;;;17.70;51.00;;;;;;7326793;19;9441;-59
2024/01/20 02:16:24;;;;;;;;;;;17.60;51.00;;;;;;7326197;19;9209;-59
2024/01/20 02:18:53;;;;;;;;;;;17.60;51.20;;;;;;7326867;19;9224;-59
2024/01/20 02:21:22;;;;;;;;;;;17.60;52.00;;;;;;7326151;19;9283;-59
2024/01/20 02:23:54;;;;;;;;;;;17.50;51.10;;;;;;7325227;19;9237;-59
2024/01/20 02:26:23;;;;;;;;;;;17.50;51.10;;;;;;7326724;19;11534;-60
2024/01/20 02:28:52;;;;;;;;;;;17.40;51.10;;;;;;7325522;19;9257;-59
2024/01/20 02:31:21;;;;;;;;;;;17.40;51.10;;;;;;7326404;19;9262;-59
2024/01/20 02:33:50;;;;;;;;;;;17.30;51.20;;;;;;7325072;19;9240;-59
2024/01/20 02:36:19;;;;;;;;;;;17.30;51.30;;;;;;7325685;19;9144;-59
2024/01/20 02:38:48;;;;;;;;;;;17.30;51.50;;;;;;7325129;19;9231;-59
2024/01/20 02:41:20;;;;;;;;;;;17.20;51.40;;;;;;7325454;19;9281;-60
2024/01/20 02:43:49;;;;;;;;;;;17.20;51.50;;;;;;7325497;19;9320;-59
2024/01/20 02:46:18;;;;;;;;;;;17.20;51.60;;;;;;7325670;19;9450;-59
2024/01/20 02:48:47;;;;;;;;;;;17.10;51.60;;;;;;7325481;19;9191;-60
2024/01/20 02:51:16;;;;;;;;;;;17.10;51.70;;;;;;7325515;19;9154;-59
2024/01/20 02:53:45;;;;;;;;;;;17.10;51.80;;;;;;7325376;19;9170;-59
2024/01/20 02:56:15;;;;;;;;;;;17.10;51.80;;;;;;7324665;19;9324;-59
2024/01/20 02:58:46;;;;;;;;;;;17.00;51.70;;;;;;7325038;19;9235;-59
2024/01/20 03:01:15;;;;;;;;;;;17.00;51.70;;;;;;7324747;19;9249;-60
2024/01/20 03:03:45;;;;;;;;;;;17.00;51.90;;;;;;7325297;19;9173;-59
2024/01/20 03:06:14;;;;;;;;;;;17.00;51.80;;;;;;7322843;19;9230;-59
2024/01/20 03:08:40;;;;;;;;;;;17.00;51.70;;;;;;7323346;19;9309;-59
2024/01/20 03:11:10;;;;;;;;;;;17.00;51.60;;;;;;7324922;19;9176;-59
2024/01/20 03:13:39;;;;;;;;;;;16.90;51.70;;;;;;7325191;19;9138;-59
2024/01/20 03:16:11;;;;;;;;;;;16.90;51.60;;;;;;7324235;19;9501;-59
2024/01/20 03:18:40;;;;;;;;;;;17.00;51.50;;;;;;7324201;19;9691;-59
2024/01/20 03:21:10;;;;;;;;;;;17.00;51.50;;;;;;7323136;19;9814;-60
2024/01/20 03:23:39;;;;;;;;;;;17.00;51.40;;;;;;7324783;19;9591;-59
2024/01/20 03:26:12;;;;;;;;;;;17.10;51.40;;;;;;7324912;19;10983;-59
2024/01/20 03:28:41;;;;;;;;;;;17.10;51.30;;;;;;7323525;19;9341;-60
2024/01/20 03:31:12;;;;;;;;;;;17.20;51.30;;;;;;7324192;19;9263;-59
2024/01/20 03:33:41;;;;;;;;;;;17.20;51.20;;;;;;7324002;19;9426;-59
2024/01/20 03:36:11;;;;;;;;;;;17.20;51.00;;;;;;7324461;19;9209;-59
2024/01/20 03:38:40;;;;;;;;;;;17.30;50.90;;;;;;7320416;19;10323;-59
2024/01/20 03:41:09;;;;;;;;;;;17.30;50.90;;;;;;7323077;19;9273;-59
2024/01/20 03:43:38;;;;;;;;;;;17.40;51.00;;;;;;7323099;19;9166;-59
2024/01/20 03:46:07;;;;;;;;;;;17.40;51.10;;;;;;7323071;19;9244;-59
2024/01/20 03:48:39;;;;;;;;;;;17.50;51.20;;;;;;7323342;19;9478;-59
2024/01/20 03:51:08;;;;;;;;;;;17.50;51.40;;;;;;7323440;19;9278;-59
2024/01/20 03:53:37;;;;;;;;;;;17.50;51.40;;;;;;7322759;19;9256;-59
2024/01/20 03:56:06;;;;;;;;;;;17.60;51.40;;;;;;7323597;19;9457;-59
2024/01/20 03:58:35;;;;;;;;;;;17.60;51.30;;;;;;7323541;19;9120;-59
2024/01/20 04:01:04;;;;;;;;;;;17.70;51.20;;;;;;7322820;19;9256;-59
2024/01/20 04:03:33;;;;;;;;;;;17.80;51.30;;;;;;7321953;19;9344;-59
2024/01/20 04:06:05;;;;;;;;;;;17.80;51.30;;;;;;7323019;19;9224;-59
2024/01/20 04:08:34;;;;;;;;;;;17.80;51.10;;;;;;7322691;19;9457;-59
2024/01/20 04:11:03;;;;;;;;;;;17.80;51.00;;;;;;7322842;19;9352;-59
2024/01/20 04:13:33;;;;;;;;;;;17.80;51.60;;;;;;7322519;19;9320;-59
2024/01/20 04:16:02;;;;;;;;;;;17.80;50.90;;;;;;7321088;19;9185;-59
2024/01/20 04:18:31;;;;;;;;;;;17.90;50.80;;;;;;7322552;19;10628;-59
2024/01/20 04:21:00;;;;;;;;;;;17.90;50.80;;;;;;7328783;19;9278;-59
2024/01/20 04:23:31;;;;;;;;;;;17.90;50.80;;;;;;7329603;19;9220;-59
2024/01/20 04:26:00;;;;;;;;;;;17.80;50.50;;;;;;7329768;19;9254;-59
2024/01/20 04:28:29;;;;;;;;;;;17.80;50.50;;;;;;7329288;19;9618;-59
2024/01/20 04:30:58;;;;;;;;;;;17.80;50.40;;;;;;7328801;19;9537;-59
2024/01/20 04:33:27;;;;;;;;;;;17.70;50.40;;;;;;7328942;19;9584;-59
2024/01/20 04:35:56;;;;;;;;;;;17.70;50.40;;;;;;7327863;19;9248;-59
2024/01/20 04:38:25;;;;;;;;;;;17.70;50.50;;;;;;7328771;19;9456;-60
2024/01/20 04:40:56;;;;;;;;;;;17.60;50.60;;;;;;7328253;19;9164;-59
2024/01/20 04:43:25;;;;;;;;;;;17.60;50.50;;;;;;7328120;19;9023;-59
2024/01/20 04:45:54;;;;;;;;;;;17.60;50.60;;;;;;7328573;19;9253;-59
2024/01/20 04:48:23;;;;;;;;;;;17.50;50.80;;;;;;7328167;19;9266;-59
2024/01/20 04:50:52;;;;;;;;;;;17.50;50.60;;;;;;7328555;19;9177;-59
2024/01/20 04:53:21;;;;;;;;;;;17.40;51.00;;;;;;7327825;19;9609;-59
2024/01/20 04:55:50;;;;;;;;;;;17.40;51.10;;;;;;7328909;19;9451;-60
2024/01/20 04:58:21;;;;;;;;;;;17.30;50.90;;;;;;7327640;19;9460;-59
2024/01/20 05:00:50;;;;;;;;;;;17.30;50.90;;;;;;7327858;19;9165;-60
2024/01/20 05:03:19;;;;;;;;;;;17.30;51.00;;;;;;7326057;19;9236;-60
2024/01/20 05:05:48;;;;;;;;;;;17.20;51.00;;;;;;7327958;19;9337;-59
2024/01/20 05:08:17;;;;;;;;;;;17.20;51.30;;;;;;7327558;19;9237;-59
2024/01/20 05:10:46;;;;;;;;;;;17.20;51.80;;;;;;7328352;19;9310;-59
2024/01/20 05:13:15;;;;;;;;;;;17.10;51.30;;;;;;7327824;19;9206;-59
2024/01/20 05:15:47;;;;;;;;;;;17.10;51.30;;;;;;7328343;19;9187;-59
2024/01/20 05:18:16;;;;;;;;;;;17.10;51.40;;;;;;7328005;19;9274;-59
2024/01/20 05:20:46;;;;;;;;;;;17.00;51.30;;;;;;7328363;19;9156;-59
2024/01/20 05:23:15;;;;;;;;;;;17.00;51.60;;;;;;7327522;19;9678;-59
2024/01/20 05:25:44;;;;;;;;;;;17.00;51.40;;;;;;7326497;19;9291;-59
2024/01/20 05:28:13;;;;;;;;;;;17.00;51.40;;;;;;7327713;19;9186;-60
2024/01/20 05:30:43;;;;;;;;;;;16.90;51.30;;;;;;7325865;19;9344;-59
2024/01/20 05:33:14;;;;;;;;;;;17.00;51.40;;;;;;7327381;19;9220;-59
2024/01/20 05:35:43;;;;;;;;;;;17.00;51.40;;;;;;7326563;19;9195;-59
2024/01/20 05:38:12;;;;;;;;;;;17.00;51.30;;;;;;7327722;19;9337;-60
2024/01/20 05:40:41;;;;;;;;;;;17.00;51.30;;;;;;7327433;19;9260;-60
2024/01/20 05:43:10;;;;;;;;;;;17.10;51.30;;;;;;7327385;19;9244;-60
2024/01/20 05:45:39;;;;;;;;;;;17.10;51.30;;;;;;7326059;19;9191;-60
2024/01/20 05:48:08;;;;;;;;;;;17.10;51.20;;;;;;7326654;19;10717;-59
2024/01/20 05:50:39;;;;;;;;;;;17.20;51.10;;;;;;7326753;19;9388;-59
2024/01/20 05:53:08;;;;;;;;;;;17.20;51.00;;;;;;7326841;19;9605;-59
2024/01/20 05:55:37;;;;;;;;;;;17.20;51.00;;;;;;7327041;19;9234;-59
2024/01/20 05:58:06;;;;;;;;;;;17.20;51.00;;;;;;7326602;19;9270;-59
2024/01/20 06:00:35;;;;;;;;;;;17.30;51.30;;;;;;7326652;19;9252;-60
2024/01/20 06:03:04;;;;;;;;;;;17.30;51.20;;;;;;7325612;19;9189;-59
2024/01/20 06:05:33;;;;;;;;;;;17.40;51.30;;;;;;7326819;19;9297;-59
2024/01/20 06:08:05;;;;;;;;;;;17.40;51.20;;;;;;7326336;19;9248;-59
2024/01/20 06:10:34;;;;;;;;;;;17.50;51.40;;;;;;7326506;19;9169;-59
2024/01/20 06:13:03;;;;;;;;;;;17.50;51.30;;;;;;7325687;19;9249;-59
2024/01/20 06:15:32;;;;;;;;;;;17.60;51.30;;;;;;7326620;19;9212;-59
2024/01/20 06:18:02;;;;;;;;;;;17.60;51.20;;;;;;7325918;19;9505;-59
2024/01/20 06:20:31;;;;;;;;;;;17.70;51.20;;;;;;7326836;19;9186;-59
2024/01/20 06:22:59;;;;;;;;;;;17.70;51.10;;;;;;7324609;19;9112;-59
2024/01/20 06:25:31;;;;;;;;;;;17.70;51.10;;;;;;7326796;19;9215;-59
2024/01/20 06:28:00;;;;;;;;;;;17.80;51.00;;;;;;7326661;19;9222;-59
2024/01/20 06:30:29;;;;;;;;;;;17.80;51.00;;;;;;7325594;19;9232;-60
2024/01/20 06:32:58;;;;;;;;;;;17.80;50.90;;;;;;7325784;19;9451;-60
2024/01/20 06:35:27;;;;;;;;;;;17.90;51.10;;;;;;7326654;19;9252;-59
2024/01/20 06:37:57;;;;;;;;;;;17.90;51.00;;;;;;7325764;19;9303;-59
2024/01/20 06:40:26;;;;;;;;;;;17.80;50.80;;;;;;7325839;19;9309;-59
2024/01/20 06:42:58;;;;;;;;;;;17.80;50.50;;;;;;7323482;19;9212;-59
2024/01/20 06:45:30;;;;;;;;;;;17.80;50.60;;;;;;7324641;19;9175;-59
2024/01/20 06:47:59;;;;;;;;;;;17.80;50.30;;;;;;7325187;19;9324;-60
2024/01/20 06:50:28;;;;;;;;;;;17.80;50.30;;;;;;7325111;19;10602;-60
2024/01/20 06:52:57;;;;;;;;;;;17.70;50.40;;;;;;7325300;19;9333;-59
2024/01/20 06:55:26;;;;;;;;;;;17.70;50.40;;;;;;7324660;19;9409;-60
2024/01/20 06:57:58;;;;;;;;;;;17.70;50.40;;;;;;7325629;19;10436;-59
2024/01/20 07:00:27;;;;;;;;;;;17.70;50.40;;;;;;7324816;19;9311;-59
2024/01/20 07:02:56;;;;;;;;;;;17.60;50.40;;;;;;7325406;19;9233;-60
2024/01/20 07:05:25;;;;;;;;;;;17.60;50.50;;;;;;7324803;19;9137;-59
2024/01/20 07:07:54;;;;;;;;;;;17.50;50.50;;;;;;7323886;19;9261;-59
2024/01/20 07:10:23;;;;;;;;;;;17.40;50.60;;;;;;7324784;19;9535;-60
2024/01/20 07:12:52;;;;;;;;;;;17.40;50.70;;;;;;7323375;19;9184;-59
2024/01/20 07:15:23;;;;;;;;;;;17.40;50.70;;;;;;7324710;19;9290;-59
2024/01/20 07:17:52;;;;;;;;;;;17.30;50.80;;;;;;7323629;19;9277;-59
2024/01/20 07:20:22;;;;;;;;;;;17.30;50.80;;;;;;7325032;19;9264;-59
2024/01/20 07:22:51;;;;;;;;;;;17.20;51.00;;;;;;7323833;19;9252;-60
2024/01/20 07:25:21;;;;;;;;;;;17.20;51.00;;;;;;7325121;19;9645;-60
2024/01/20 07:27:50;;;;;;;;;;;17.10;51.00;;;;;;7323173;19;9129;-59
2024/01/20 07:30:19;;;;;;;;;;;17.10;51.30;;;;;;7323726;19;9137;-59
2024/01/20 07:32:50;;;;;;;;;;;17.10;51.40;;;;;;7324081;19;9470;-59
2024/01/20 07:35:19;;;;;;;;;;;17.00;51.20;;;;;;7324352;19;10379;-59
2024/01/20 07:37:49;;;;;;;;;;;17.00;51.30;;;;;;7324381;19;9739;-60
2024/01/20 07:40:20;;;;;;;;;;;17.00;51.30;;;;;;7323850;19;9316;-59
2024/01/20 07:42:50;;;;;;;;;;;16.90;51.30;;;;;;7324257;19;9202;-60
2024/01/20 07:45:20;;;;;;;;;;;16.90;51.20;;;;;;7323475;19;9157;-59
2024/01/20 07:47:53;;;;;;;;;;;16.90;51.30;;;;;;7323457;19;9304;-59
2024/01/20 07:50:23;;;;;;;;;;;16.90;51.30;;;;;;7323810;19;9247;-59
2024/01/20 07:52:53;;;;;;;;;;;16.90;51.30;;;;;;7324178;19;9251;-59
2024/01/20 07:55:23;;;;;;;;;;;16.90;51.20;;;;;;7328399;19;9158;-59
2024/01/20 07:57:53;;;;;;;;;;;17.00;51.30;;;;;;7330205;19;9165;-59
2024/01/20 08:00:23;;;;;;;;;;;17.00;51.20;;;;;;7329454;19;9377;-59
2024/01/20 08:02:56;;;;;;;;;;;17.00;51.20;;;;;;7330250;19;9791;-59
2024/01/20 08:05:26;;;;;;;;;;;17.10;51.20;;;;;;7329308;19;9319;-59
2024/01/20 08:07:56;;;;;;;;;;;17.10;51.10;;;;;;7330331;19;9160;-59
2024/01/20 08:10:26;;;;;;;;;;;17.20;51.40;;;;;;7330492;19;9209;-59
2024/01/20 08:12:56;;;;;;;;;;;17.20;51.30;;;;;;7329632;19;9707;-59
2024/01/20 08:15:27;;;;;;;;;;;17.30;50.90;;;;;;7330413;19;9783;-59
2024/01/20 08:17:59;;;;;;;;;;;17.30;50.70;;;;;;7328965;19;9178;-59
2024/01/20 08:20:29;;;;;;;;;;;17.30;50.80;;;;;;7329642;19;9340;-59
2024/01/20 08:22:59;;;;;;;;;;;17.30;50.80;;;;;;7328649;19;9362;-60
2024/01/20 08:25:29;;;;;;;;;;;17.40;51.00;;;;;;7328780;19;9188;-60
2024/01/20 08:27:59;;;;;;;;;;;17.40;51.00;;;;;;7328062;19;9965;-60
2024/01/20 08:30:29;;;;;;;;;;;17.50;51.10;;;;;;7329183;19;9146;-58
2024/01/20 08:33:01;;;;;;;;;;;17.50;51.10;;;;;;7329100;19;9150;-60
2024/01/20 08:35:31;;;;;;;;;;;17.60;51.10;;;;;;7327895;19;9193;-60
2024/01/20 08:38:01;;;;;;;;;;;17.60;51.00;;;;;;7328017;19;9202;-60
2024/01/20 08:40:31;;;;;;;;;;;17.60;51.00;;;;;;7327888;19;9258;-60
2024/01/20 08:43:00;;;;;;;;;;;17.70;51.00;;;;;;7329262;19;9963;-60
2024/01/20 08:45:30;;;;;;;;;;;17.70;50.90;;;;;;7328383;19;9361;-60
2024/01/20 08:48:04;;;;;;;;;;;17.80;50.90;;;;;;7328483;19;9984;-59
2024/01/20 08:50:33;;;;;;;;;;;17.80;50.90;;;;;;7328233;19;9247;-60
2024/01/20 08:53:03;;;;;;;;;;;17.80;50.80;;;;;;7328404;19;9207;-59
2024/01/20 08:55:33;;;;;;;;;;;17.90;50.90;;;;;;7327953;19;9367;-59
2024/01/20 08:58:03;;;;;;;;;;;17.90;50.80;;;;;;7328038;19;9170;-59
2024/01/20 09:00:33;;;;;;;;;;;17.90;50.60;;;;;;7328911;19;9278;-59
2024/01/20 09:03:06;;;;;;;;;;;17.90;50.60;;;;;;7325656;19;9291;-59
2024/01/20 09:05:35;;;;;;;;;;;17.90;50.60;;;;;;7326562;19;9200;-59
2024/01/20 09:08:05;;;;;;;;;;;17.90;50.50;;;;;;7326743;19;9212;-59
2024/01/20 09:10:35;;;;;;;;;;;17.90;50.40;;;;;;7328300;19;9028;-59
2024/01/20 09:13:04;;;;;;;;;;;17.90;50.70;;;;;;7326542;19;9479;-59
2024/01/20 09:15:33;;;;;;;;;;;17.80;50.30;;;;;;7327417;19;9269;-59
2024/01/20 09:18:02;;;;;;;;;;;17.80;50.30;;;;;;7327130;19;9177;-59
2024/01/20 09:20:34;;;;;;;;;;;17.70;50.40;;;;;;7327507;19;8945;-59
2024/01/20 09:23:03;;;;;;;;;;;17.70;50.40;;;;;;7325887;19;9039;-59
2024/01/20 09:25:32;;;;;;;;;;;17.70;50.50;;;;;;7327568;19;9249;-59
2024/01/20 09:28:03;;;;;;;;;;;17.60;50.50;;;;;;7327539;19;9363;-59
2024/01/20 09:30:35;;;;;;;;;;;17.60;51.30;;;;;;7327358;19;9248;-59
2024/01/20 09:33:04;;;;;;;;;;;17.60;50.60;;;;;;7327848;19;9142;-59
2024/01/20 09:35:36;;;;;;;;;;;17.60;50.70;;;;;;7325036;19;9266;-59
2024/01/20 09:38:05;;;;;;;;;;;17.50;50.60;;;;;;7327015;19;9177;-59
2024/01/20 09:40:35;;;;;;;;;;;17.50;50.70;;;;;;7325918;19;9245;-59
2024/01/20 09:43:06;;;;;;;;;;;17.40;50.70;;;;;;7327228;19;9239;-59
2024/01/20 09:45:38;;;;;;;;;;;17.40;50.80;;;;;;7326694;19;9225;-59
2024/01/20 09:48:08;;;;;;;;;;;17.30;50.80;;;;;;7326012;19;9139;-59
2024/01/20 09:50:40;;;;;;;;;;;17.30;50.80;;;;;;7326579;19;9280;-59
2024/01/20 09:53:16;;;;;;;;;;;17.30;51.10;;;;;;7326024;19;9269;-59
2024/01/20 09:55:47;;;;;;;;;;;17.20;50.90;;;;;;7326580;19;9563;-59
2024/01/20 09:58:19;;;;;;;;;;;17.20;50.90;;;;;;7325184;19;9068;-59
2024/01/20 10:00:49;;;;;;;;;;;17.20;51.00;;;;;;7326474;19;9324;-59
2024/01/20 10:03:20;;;;;;;;;;;17.20;51.00;;;;;;7325701;19;9360;-59
2024/01/20 10:05:53;;;;;;;;;;;17.10;51.00;;;;;;7326402;19;9995;-59
2024/01/20 10:08:23;;;;;;;;;;;17.10;51.00;;;;;;7325329;19;9875;-59
2024/01/20 10:11:04;;;;;;;;;;;17.10;51.00;;;;;;7327471;19;9311;-59
2024/01/20 10:13:34;;;;;;;;;;;17.10;51.20;;;;;;7326992;19;9203;-59
2024/01/20 10:16:03;;;;;;;;;;;17.10;51.20;;;;;;7325455;19;9284;-59
2024/01/20 10:18:33;;;;;;;;;;;17.10;51.10;;;;;;7324523;19;9249;-59
2024/01/20 10:21:07;;;;;;;;;;;17.00;51.20;;;;;;7325997;19;9185;-60
2024/01/20 10:23:38;;;;;;;;;;;17.00;51.30;;;;;;7327168;19;9138;-59
2024/01/20 10:26:09;;;;;;;;;;;17.10;51.30;;;;;;7326055;19;9722;-59
2024/01/20 10:28:39;;;;;;;;;;;17.10;51.30;;;;;;7326226;19;9245;-59
2024/01/20 10:31:09;;;;;;;;;;;17.10;51.20;;;;;;7326008;19;8948;-59
2024/01/20 10:33:39;;;;;;;;;;;17.10;51.10;;;;;;7325787;19;9289;-59
2024/01/20 10:36:18;;;;;;;;;;;17.10;51.00;;;;;;7325085;19;9316;-59
2024/01/20 10:38:54;;;;;;;;;;;17.20;51.30;;;;;;7325505;19;9979;-59
2024/01/20 10:41:27;;;;;;;;;;;17.30;51.10;;;;;;7325892;19;9161;-59
2024/01/20 10:44:04;;;;;;;;;;;17.30;50.90;;;;;;7325457;19;9273;-59
2024/01/20 10:46:42;;;;;;;;;;;17.30;50.80;;;;;;7325373;19;9459;-59
2024/01/20 10:49:17;;;;;;;;;;;17.30;50.90;;;;;;7325452;19;11465;-59
2024/01/20 10:51:51;;;;;;;;;;;17.40;51.10;;;;;;7324980;19;8952;-59
2024/01/20 10:54:23;;;;;;;;;;;17.40;51.10;;;;;;7324065;19;9020;-59
2024/01/20 10:56:53;;;;;;;;;;;17.40;51.00;;;;;;7324888;19;9333;-59
2024/01/20 10:59:30;;;;;;;;;;;17.50;51.00;;;;;;7325394;19;9222;-59
2024/01/20 11:02:00;;;;;;;;;;;17.50;51.00;;;;;;7324010;19;9430;-60
2024/01/20 11:04:37;;;;;;;;;;;17.60;51.10;;;;;;7324388;19;9244;-59
2024/01/20 11:07:12;;;;;;;;;;;17.70;51.10;;;;;;7326003;19;8944;-59
2024/01/20 11:09:42;;;;;;;;;;;17.70;51.00;;;;;;7324419;19;9252;-59
2024/01/20 11:12:12;;;;;;;;;;;17.70;51.00;;;;;;7324730;19;9170;-59
2024/01/20 11:14:42;;;;;;;;;;;17.80;51.00;;;;;;7324260;19;10055;-60
2024/01/20 11:17:12;;;;;;;;;;;17.80;50.90;;;;;;7324279;19;9220;-59
2024/01/20 11:19:43;;;;;;;;;;;17.90;50.90;;;;;;7324013;19;9213;-65
2024/01/20 11:22:37;;;;;;;;;;;17.90;50.80;;;;;;7323997;19;9220;-59
2024/01/20 11:25:09;;;;;;;;;;;17.90;50.80;;;;;;7324592;19;9189;-60
2024/01/20 11:27:50;;;;;;;;;;;17.90;50.60;;;;;;7323429;19;9168;-59
2024/01/20 11:30:29;;;;;;;;;;;17.90;50.60;;;;;;7324368;19;9229;-59
2024/01/20 11:32:59;;;;;;;;;;;17.90;50.50;;;;;;7322739;19;9289;-59
2024/01/20 11:35:30;;;;;;;;;;;17.90;50.50;;;;;;7323913;19;9811;-59
2024/01/20 11:38:04;;;;;;;;;;;17.90;50.60;;;;;;7324282;19;9217;-59
2024/01/20 11:40:34;;;;;;;;;;;17.80;50.30;;;;;;7323165;19;9266;-59
2024/01/20 11:43:09;;;;;;;;;;;17.80;50.20;;;;;;7323689;19;9284;-59
2024/01/20 11:45:39;;;;;;;;;;;17.80;50.30;;;;;;7323737;19;9956;-59
2024/01/20 11:48:09;;;;;;;;;;;17.80;50.30;;;;;;7323021;19;9068;-59
2024/01/20 11:50:42;;;;;;;;;;;17.80;50.40;;;;;;7322975;19;9514;-59
2024/01/20 11:53:15;;;;;;;;;;;17.70;50.40;;;;;;7324060;19;9202;-60
2024/01/20 11:55:55;;;;;;;;;;;17.70;50.40;;;;;;7323840;19;9224;-59
2024/01/20 11:58:25;;;;;;;;;;;17.70;50.50;;;;;;7323064;19;10090;-59
2024/01/20 12:00:57;;;;;;;;;;;17.60;50.40;;;;;;7324226;19;9273;-59
2024/01/20 12:03:28;;;;;;;;;;;17.60;50.50;;;;;;7321829;19;9307;-59
2024/01/20 12:05:58;;;;;;;;;;;17.50;50.50;;;;;;7322031;19;9234;-59
2024/01/20 12:08:30;;;;;;;;;;;17.50;50.60;;;;;;7322012;19;9209;-59
2024/01/20 12:11:00;;;;;;;;;;;17.50;50.70;;;;;;7323658;19;9176;-59
2024/01/20 12:13:32;;;;;;;;;;;17.50;50.70;;;;;;7322886;19;9194;-59
2024/01/20 12:16:03;;;;;;;;;;;17.40;50.80;;;;;;7322343;19;9012;-59
2024/01/20 12:18:32;;;;;;;;;;;17.40;50.80;;;;;;7321985;19;10011;-59
2024/01/20 12:21:02;;;;;;;;;;;17.30;50.80;;;;;;7321254;19;9213;-59
2024/01/20 12:23:33;;;;;;;;;;;17.30;50.80;;;;;;7323316;19;9036;-59
2024/01/20 12:26:02;;;;;;;;;;;17.30;51.10;;;;;;7322410;19;10078;-59
2024/01/20 12:28:32;;;;;;;;;;;17.30;51.00;;;;;;7322579;19;10094;-59
2024/01/20 12:31:01;;;;;;;;;;;17.20;51.00;;;;;;7321361;19;9197;-59
2024/01/20 12:33:30;;;;;;;;;;;17.20;51.10;;;;;;7322749;19;9213;-59
2024/01/20 12:35:59;;;;;;;;;;;17.20;51.20;;;;;;7321576;19;9205;-59
2024/01/20 12:38:28;;;;;;;;;;;17.20;51.10;;;;;;7322477;19;9296;-60
2024/01/20 12:41:00;;;;;;;;;;;17.10;51.20;;;;;;7325022;19;9198;-59
2024/01/20 12:43:30;;;;;;;;;;;17.10;51.50;;;;;;7328128;19;9015;-60
2024/01/20 12:46:00;;;;;;;;;;;17.10;51.40;;;;;;7328890;19;8941;-59
2024/01/20 12:48:29;;;;;;;;;;;17.10;51.30;;;;;;7327017;19;9146;-59
2024/01/20 12:50:58;;;;;;;;;;;17.10;51.30;;;;;;7327475;19;9221;-59
2024/01/20 12:53:27;;;;;;;;;;;17.00;51.40;;;;;;7327885;19;9971;-59
2024/01/20 12:55:59;;;;;;;;;;;17.00;51.30;;;;;;7328648;19;9284;-59
2024/01/20 12:58:30;;;;;;;;;;;17.00;51.30;;;;;;7327599;19;9264;-59
2024/01/20 13:00:59;;;;;;;;;;;17.00;51.30;;;;;;7327402;19;9154;-59
2024/01/20 13:03:28;;;;;;;;;;;17.00;51.30;;;;;;7327233;19;9261;-59
2024/01/20 13:05:57;;;;;;;;;;;17.00;51.20;;;;;;7327945;19;9277;-59
2024/01/20 13:08:27;;;;;;;;;;;17.00;51.20;;;;;;7326931;19;9208;-59
2024/01/20 13:10:59;;;;;;;;;;;17.00;51.20;;;;;;7328019;19;9233;-59
2024/01/20 13:13:29;;;;;;;;;;;17.00;51.20;;;;;;7327140;19;9237;-59
2024/01/20 13:15:59;;;;;;;;;;;17.10;51.30;;;;;;7327353;19;9352;-59
2024/01/20 13:18:30;;;;;;;;;;;17.10;51.30;;;;;;7327830;19;9289;-59
2024/01/20 13:21:01;;;;;;;;;;;17.20;51.30;;;;;;7326892;19;9023;-59
2024/01/20 13:23:30;;;;;;;;;;;17.20;51.20;;;;;;7326760;19;9368;-59
2024/01/20 13:26:03;;;;;;;;;;;17.20;51.40;;;;;;7326410;19;9209;-59
2024/01/20 13:28:33;;;;;;;;;;;17.30;51.30;;;;;;7327660;19;9190;-59
2024/01/20 13:31:03;;;;;;;;;;;17.40;51.40;;;;;;7326823;19;9288;-59
2024/01/20 13:33:33;;;;;;;;;;;17.40;51.20;;;;;;7327509;19;9194;-59
2024/01/20 13:36:03;;;;;;;;;;;17.50;51.30;;;;;;7326003;19;9283;-59
2024/01/20 13:38:33;;;;;;;;;;;17.50;51.10;;;;;;7327602;19;9245;-59
2024/01/20 13:41:06;;;;;;;;;;;17.50;51.10;;;;;;7326873;19;9396;-59
2024/01/20 13:43:36;;;;;;;;;;;17.60;51.10;;;;;;7326249;19;9813;-60
2024/01/20 13:46:06;;;;;;;;;;;17.60;51.60;;;;;;7326886;19;9210;-60
2024/01/20 13:48:36;;;;;;;;;;;17.70;50.90;;;;;;7326103;19;9181;-59
2024/01/20 13:51:06;;;;;;;;;;;17.70;51.00;;;;;;7327083;19;9244;-60
2024/01/20 13:53:36;;;;;;;;;;;17.70;51.00;;;;;;7326686;19;9220;-59
2024/01/20 13:56:09;;;;;;;;;;;17.80;50.80;;;;;;7327256;19;9317;-59
2024/01/20 13:58:39;;;;;;;;;;;17.80;50.90;;;;;;7325838;19;9324;-59
2024/01/20 14:01:08;;;;;;;;;;;17.80;50.80;;;;;;7327064;19;9343;-60
2024/01/20 14:03:38;;;;;;;;;;;17.90;50.80;;;;;;7326670;19;9236;-59
2024/01/20 14:06:08;;;;;;;;;;;17.90;50.70;;;;;;7326529;19;9228;-59
2024/01/20 14:08:40;;;;;;;;;;;17.90;50.60;;;;;;7325978;19;9208;-59
2024/01/20 14:11:13;;;;;;;;;;;17.90;50.70;;;;;;7325937;19;9363;-59
2024/01/20 14:13:42;;;;;;;;;;;17.90;50.50;;;;;;7327012;19;9340;-59
2024/01/20 14:16:12;;;;;;;;;;;17.90;50.60;;;;;;7325368;19;9259;-59
2024/01/20 14:18:42;;;;;;;;;;;17.90;50.50;;;;;;7326796;19;9301;-59
2024/01/20 14:21:12;;;;;;;;;;;17.80;50.50;;;;;;7325809;19;9333;-59
2024/01/20 14:23:42;;;;;;;;;;;17.80;50.50;;;;;;7326347;19;9257;-60
2024/01/20 14:26:14;;;;;;;;;;;17.80;50.60;;;;;;7325795;19;9262;-59
2024/01/20 14:28:44;;;;;;;;;;;17.70;50.50;;;;;;7325704;19;9214;-59
2024/01/20 14:31:14;;;;;;;;;;;17.70;50.60;;;;;;7326590;19;9236;-59
2024/01/20 14:33:44;;;;;;;;;;;17.70;50.70;;;;;;7326109;19;9443;-59
2024/01/20 14:36:14;;;;;;;;;;;17.70;50.70;;;;;;7325364;19;10277;-59
2024/01/20 14:38:44;;;;;;;;;;;17.70;50.80;;;;;;7325369;19;9074;-59
2024/01/20 14:41:18;;;;;;;;;;;17.60;50.80;;;;;;7324441;19;9316;-59
2024/01/20 14:43:48;;;;;;;;;;;17.60;50.90;;;;;;7325035;19;9341;-59
2024/01/20 14:46:18;;;;;;;;;;;17.50;50.90;;;;;;7324245;19;9237;-59